createdAt,value
2022-11-21T00:00:36.715Z,25.23
2022-11-21T00:05:46.489Z,29.17
2022-11-21T00:10:52.051Z,31.10
2022-11-21T00:15:57.090Z,29.97
2022-11-21T00:21:07.620Z,32.30
2022-11-21T00:26:14.057Z,30.27
2022-11-21T00:31:23.481Z,32.03
2022-11-21T00:36:31.126Z,31.53
2022-11-21T00:41:36.107Z,28.77
2022-11-21T00:46:41.015Z,31.13
2022-11-21T00:51:48.726Z,30.73
2022-11-21T00:56:53.631Z,27.53
2022-11-21T01:01:58.493Z,27.60
2022-11-21T01:07:07.235Z,28.13
2022-11-21T01:12:12.206Z,27.80
2022-11-21T01:17:17.130Z,28.07
2022-11-21T01:22:24.564Z,25.83
2022-11-21T01:27:29.426Z,25.30
2022-11-21T01:32:34.374Z,25.40
2022-11-21T01:37:42.131Z,27.47
2022-11-21T01:42:56.592Z,23.93
2022-11-21T01:48:01.503Z,22.87
2022-11-21T01:53:09.291Z,21.23
2022-11-21T01:58:15.820Z,22.17
2022-11-21T02:03:27.778Z,21.90
2022-11-21T02:08:35.657Z,22.07
2022-11-21T02:13:40.891Z,19.83
2022-11-21T02:18:45.931Z,21.10
2022-11-21T02:24:01.732Z,20.87
2022-11-21T02:29:09.242Z,22.13
2022-11-21T02:34:14.077Z,23.00
2022-11-21T02:39:24.519Z,22.27
2022-11-21T02:44:40.452Z,22.93
2022-11-21T02:49:52.268Z,23.13
2022-11-21T02:54:57.158Z,21.80
2022-11-21T03:00:04.854Z,23.47
2022-11-21T03:05:12.752Z,21.83
2022-11-21T03:10:18.527Z,24.93
2022-11-21T03:15:26.620Z,22.83
2022-11-21T03:20:31.972Z,21.67
2022-11-21T03:25:37.285Z,21.30
2022-11-21T03:30:44.947Z,21.27
2022-11-21T03:35:51.125Z,21.83
2022-11-21T03:40:56.082Z,20.47
2022-11-21T03:46:03.516Z,19.67
2022-11-21T03:51:08.644Z,17.50
2022-11-21T03:56:13.478Z,16.57
2022-11-21T04:01:21.630Z,16.10
2022-11-21T04:06:27.708Z,16.10
2022-11-21T04:11:32.663Z,16.10
2022-11-21T04:16:41.981Z,14.10
2022-11-21T04:21:46.839Z,14.53
2022-11-21T04:26:51.802Z,14.23
2022-11-21T04:31:59.653Z,15.07
2022-11-21T04:37:08.876Z,14.80
2022-11-21T04:42:16.373Z,15.63
2022-11-21T04:47:23.954Z,16.77
2022-11-21T04:52:32.931Z,15.47
2022-11-21T04:57:40.154Z,17.43
2022-11-21T05:02:49.451Z,16.77
2022-11-21T05:07:54.517Z,17.43
2022-11-21T05:13:13.279Z,16.27
2022-11-21T05:18:22.156Z,15.13
2022-11-21T05:23:28.960Z,14.90
2022-11-21T05:28:33.859Z,16.07
2022-11-21T05:33:47.321Z,17.47
2022-11-21T05:38:55.121Z,14.20
2022-11-21T05:44:01.574Z,15.80
2022-11-21T05:49:11.479Z,13.63
2022-11-21T05:54:17.504Z,14.37
2022-11-21T05:59:22.513Z,13.37
2022-11-21T06:04:32.166Z,14.90
2022-11-21T06:09:39.526Z,14.33
2022-11-21T06:14:45.760Z,14.90
2022-11-21T06:19:58.354Z,13.43
2022-11-21T06:25:04.644Z,13.10
2022-11-21T06:30:11.476Z,13.77
2022-11-21T06:35:19.706Z,19.47
2022-11-21T06:40:24.756Z,12.80
2022-11-21T06:45:31.383Z,12.00
2022-11-21T06:50:41.894Z,8.70
2022-11-21T06:55:47.522Z,7.27
2022-11-21T07:00:53.484Z,7.03
2022-11-21T07:06:04.268Z,7.43
2022-11-21T07:11:26.997Z,6.97
2022-11-21T07:16:32.642Z,7.27
2022-11-21T07:21:43.556Z,7.90
2022-11-21T07:26:48.487Z,7.80
2022-11-21T07:31:54.612Z,7.23
2022-11-21T07:37:05.403Z,7.73
2022-11-21T07:42:11.003Z,8.23
2022-11-21T07:47:18.997Z,9.33
2022-11-21T07:52:27.083Z,9.63
2022-11-21T07:57:32.675Z,11.40
2022-11-21T08:02:59.695Z,12.97
2022-11-21T08:08:13.453Z,16.07
2022-11-21T08:13:19.752Z,17.23
2022-11-21T08:18:32.691Z,17.87
2022-11-21T08:23:47.230Z,16.83
2022-11-21T08:29:04.540Z,18.30
2022-11-21T08:34:14.457Z,19.83
2022-11-21T08:39:22.574Z,34.90
2022-11-21T08:44:30.109Z,19.80
2022-11-21T08:49:36.004Z,20.13
2022-11-21T08:54:44.306Z,20.33
2022-11-21T08:59:52.468Z,17.33
2022-11-21T09:04:59.133Z,18.50
2022-11-21T09:10:07.824Z,18.73
2022-11-21T09:15:27.098Z,20.10
2022-11-21T09:20:42.505Z,18.73
2022-11-21T09:25:51.601Z,20.53
2022-11-21T09:30:59.367Z,18.57
2022-11-21T09:36:07.584Z,20.80
2022-11-21T09:41:42.695Z,26.42
2022-11-21T09:46:51.030Z,22.90
2022-11-21T09:52:00.850Z,22.27
2022-11-21T09:57:08.799Z,22.07
2022-11-21T10:02:18.496Z,20.47
2022-11-21T10:07:28.668Z,20.10
2022-11-21T10:12:44.745Z,20.47
2022-11-21T10:18:11.280Z,20.47
2022-11-21T10:23:35.807Z,22.00
2022-11-21T10:28:54.312Z,21.83
2022-11-21T10:34:02.094Z,21.03
2022-11-21T10:39:15.872Z,20.83
2022-11-21T10:44:41.368Z,19.70
2022-11-21T10:49:49.381Z,20.00
2022-11-21T10:55:13.467Z,20.67
2022-11-21T11:00:27.575Z,20.40
2022-11-21T11:05:33.560Z,20.17
2022-11-21T11:10:40.697Z,19.47
2022-11-21T11:16:04.579Z,20.30
2022-11-21T11:21:18.853Z,21.03
2022-11-21T11:26:32.153Z,21.73
2022-11-21T11:31:47.937Z,21.70
2022-11-21T11:37:07.797Z,22.50
2022-11-21T11:43:00.481Z,20.97
2022-11-21T11:48:12.437Z,17.80
2022-11-21T11:53:21.753Z,16.67
2022-11-21T11:58:32.925Z,15.40
2022-11-21T12:03:47.183Z,15.33
2022-11-21T12:08:59.743Z,15.40
2022-11-21T12:14:34.546Z,18.03
2022-11-21T12:19:47.072Z,17.77
2022-11-21T12:24:53.399Z,16.57
2022-11-21T12:30:32.888Z,15.97
2022-11-21T12:36:09.226Z,16.40
2022-11-21T12:41:42.909Z,15.70
2022-11-21T12:52:49.685Z,15.77
2022-11-21T12:58:11.047Z,14.93
2022-11-21T13:03:33.571Z,15.63
2022-11-21T13:08:42.515Z,14.60
2022-11-21T13:13:51.044Z,17.00
2022-11-21T13:18:57.491Z,17.13
2022-11-21T13:24:05.304Z,19.73
2022-11-21T13:29:12.541Z,13.93
2022-11-21T13:34:37.652Z,12.60
2022-11-21T13:39:48.121Z,13.13
2022-11-21T13:44:54.821Z,13.43
2022-11-21T13:50:11.689Z,12.87
2022-11-21T13:55:45.319Z,12.63
2022-11-21T14:01:25.923Z,12.70
2022-11-21T14:06:37.930Z,12.73
2022-11-21T14:11:50.619Z,11.87
2022-11-21T14:17:15.556Z,12.67
2022-11-21T14:22:34.786Z,13.80
2022-11-21T14:27:45.627Z,14.77
2022-11-21T14:32:54.304Z,15.07
2022-11-21T14:38:08.539Z,15.17
2022-11-21T14:43:33.491Z,14.67
2022-11-21T14:48:38.669Z,14.17
2022-11-21T14:53:47.279Z,16.17
2022-11-21T14:58:59.047Z,15.20
2022-11-21T15:04:06.514Z,15.80
2022-11-21T15:10:25.294Z,15.57
2022-11-21T15:14:50.441Z,17.30
2022-11-21T15:20:21.190Z,18.40
2022-11-21T15:25:31.363Z,20.50
2022-11-21T15:30:39.969Z,20.70
2022-11-21T15:35:51.528Z,21.00
2022-11-21T15:52:21.618Z,23.30
2022-11-21T16:03:24.630Z,22.33
2022-11-21T16:08:51.453Z,23.53
2022-11-21T16:14:44.984Z,24.83
2022-11-21T16:20:12.504Z,23.47
2022-11-21T16:25:37.312Z,23.50
2022-11-21T16:30:47.137Z,20.43
2022-11-21T16:35:58.074Z,22.07
2022-11-21T16:41:05.771Z,21.23
2022-11-21T16:46:13.651Z,21.33
2022-11-21T16:51:22.762Z,19.03
2022-11-21T16:56:31.045Z,19.20
2022-11-21T17:01:37.460Z,21.17
2022-11-21T17:06:45.505Z,20.63
2022-11-21T17:11:53.469Z,19.07
2022-11-21T17:17:01.290Z,20.33
2022-11-21T17:22:09.212Z,19.80
2022-11-21T17:27:16.548Z,19.07
2022-11-21T17:32:24.939Z,19.20
2022-11-21T17:37:32.807Z,21.33
2022-11-21T17:42:38.064Z,19.67
2022-11-21T17:47:44.151Z,19.63
2022-11-21T17:52:52.707Z,17.60
2022-11-21T17:57:57.679Z,17.27
2022-11-21T18:03:02.606Z,18.87
2022-11-21T18:08:10.481Z,16.80
2022-11-21T18:13:15.507Z,19.27
2022-11-21T18:18:21.317Z,19.10
2022-11-21T18:23:30.788Z,19.00
2022-11-21T18:28:36.483Z,18.20
2022-11-21T18:33:42.197Z,18.57
2022-11-21T18:38:58.319Z,18.33
2022-11-21T18:44:09.419Z,18.53
2022-11-21T18:49:18.023Z,16.17
2022-11-21T18:54:27.134Z,18.40
2022-11-21T18:59:32.228Z,18.40
2022-11-21T19:04:40.218Z,16.27
2022-11-21T19:09:48.223Z,18.47
2022-11-21T19:14:55.683Z,19.13
2022-11-21T19:20:00.812Z,16.80
2022-11-21T19:25:11.224Z,17.13
2022-11-21T19:30:17.220Z,16.07
2022-11-21T19:35:23.820Z,15.93
2022-11-21T19:40:51.655Z,16.13
2022-11-21T19:45:58.343Z,18.67
2022-11-21T19:51:05.391Z,18.90
2022-11-21T19:56:16.171Z,19.97
2022-11-21T20:01:24.075Z,18.10
2022-11-21T20:06:31.349Z,18.57
2022-11-21T20:11:41.544Z,17.57
2022-11-21T20:16:49.258Z,19.63
2022-11-21T20:21:55.678Z,22.17
2022-11-21T20:27:03.965Z,18.23
2022-11-21T20:32:09.158Z,17.17
2022-11-21T20:37:14.725Z,15.40
2022-11-21T20:42:22.433Z,13.87
2022-11-21T20:47:27.446Z,14.30
2022-11-21T20:58:01.887Z,13.53
2022-11-21T21:03:08.329Z,14.27
2022-11-21T21:08:13.481Z,13.83
2022-11-21T21:13:21.115Z,14.60
2022-11-21T21:18:26.067Z,13.10
2022-11-21T21:23:31.041Z,12.83
2022-11-21T21:28:38.676Z,13.47
2022-11-21T21:33:44.375Z,13.20
2022-11-21T21:38:53.966Z,13.87
2022-11-21T21:44:01.853Z,13.90
2022-11-21T21:49:06.996Z,12.37
2022-11-21T21:54:18.789Z,12.37
2022-11-21T21:59:26.356Z,10.60
2022-11-21T22:04:32.229Z,9.53
2022-11-21T22:09:38.087Z,12.93
2022-11-21T22:14:45.602Z,12.17
2022-11-21T22:19:50.501Z,10.87
2022-11-21T22:24:55.585Z,11.67
2022-11-21T22:30:03.175Z,11.93
2022-11-21T22:35:09.174Z,12.47
2022-11-21T22:40:15.839Z,12.10
2022-11-21T22:45:23.469Z,10.30
2022-11-21T22:50:28.597Z,11.33
2022-11-21T22:55:33.553Z,13.00
2022-11-21T23:00:41.145Z,13.43
2022-11-21T23:05:46.114Z,11.30
2022-11-21T23:10:51.029Z,12.63
2022-11-21T23:16:01.568Z,14.07
2022-11-21T23:21:07.542Z,12.73
2022-11-21T23:26:13.384Z,15.17
2022-11-21T23:31:20.882Z,13.23
2022-11-21T23:36:25.872Z,12.73
2022-11-21T23:41:31.030Z,13.87
2022-11-21T23:46:38.696Z,11.97
2022-11-21T23:51:43.596Z,13.53
2022-11-21T23:56:48.652Z,14.50
